createdAt,value
2018-04-01T00:00:30.319Z,95851.66
2018-04-01T00:01:01.946Z,95850.86
2018-04-01T00:01:33.572Z,95847.52
2018-04-01T00:02:05.206Z,95855.84
2018-04-01T00:02:36.830Z,95851.14
2018-04-01T00:03:08.460Z,95851.08
2018-04-01T00:03:40.093Z,95851.14
2018-04-01T00:04:11.718Z,95849.91
2018-04-01T00:04:43.342Z,95855.20
2018-04-01T00:05:14.967Z,95850.38
2018-04-01T00:05:46.666Z,95847.77
2018-04-01T00:06:18.294Z,95846.94
2018-04-01T00:06:49.923Z,95854.49
2018-04-01T00:07:21.550Z,95853.31
2018-04-01T00:07:53.170Z,95849.17
2018-04-01T00:08:24.790Z,95845.80
2018-04-01T00:08:56.418Z,95856.77
2018-04-01T00:09:28.042Z,95850.45
2018-04-01T00:09:59.666Z,95860.69
2018-04-01T00:10:31.294Z,95855.91
2018-04-01T00:11:02.983Z,95859.41
2018-04-01T00:11:34.610Z,95850.86
2018-04-01T00:12:06.238Z,95862.25
2018-04-01T00:12:37.866Z,95855.91
2018-04-01T00:13:09.498Z,95855.59
2018-04-01T00:13:41.131Z,95859.90
2018-04-01T00:14:12.765Z,95861.80
2018-04-01T00:14:44.391Z,95855.42
2018-04-01T00:15:16.035Z,95858.67
2018-04-01T00:15:47.666Z,95865.50
2018-04-01T00:16:19.361Z,95858.25
2018-04-01T00:16:50.990Z,95865.78
2018-04-01T00:17:22.626Z,95861.98
2018-04-01T00:17:54.254Z,95865.58
2018-04-01T00:18:25.892Z,95860.89
2018-04-01T00:18:57.518Z,95866.41
2018-04-01T00:19:29.146Z,95863.65
2018-04-01T00:20:00.774Z,95860.72
2018-04-01T00:20:32.402Z,95863.78
2018-04-01T00:21:04.026Z,95863.89
2018-04-01T00:21:35.740Z,95863.78
2018-04-01T00:22:07.370Z,95861.23
2018-04-01T00:22:38.994Z,95860.81
2018-04-01T00:23:10.623Z,95856.13
2018-04-01T00:23:42.250Z,95859.54
2018-04-01T00:24:13.873Z,95859.27
2018-04-01T00:24:45.498Z,95864.72
2018-04-01T00:25:17.128Z,95859.07
2018-04-01T00:25:48.758Z,95863.17
2018-04-01T00:26:20.387Z,95860.66
2018-04-01T00:26:52.082Z,95871.94
2018-04-01T00:27:23.706Z,95866.49
2018-04-01T00:27:55.332Z,95870.28
2018-04-01T00:28:26.966Z,95864.70
2018-04-01T00:28:58.589Z,95868.29
2018-04-01T00:29:30.210Z,95866.53
2018-04-01T00:30:01.843Z,95868.84
2018-04-01T00:30:33.474Z,95871.33
2018-04-01T00:31:05.101Z,95863.05
2018-04-01T00:31:36.729Z,95867.27
2018-04-01T00:32:08.422Z,95858.28
2018-04-01T00:32:40.054Z,95869.74
2018-04-01T00:33:11.683Z,95864.91
2018-04-01T00:33:43.315Z,95869.33
2018-04-01T00:34:14.938Z,95868.95
2018-04-01T00:34:46.562Z,95867.67
2018-04-01T00:35:18.190Z,95869.19
2018-04-01T00:35:49.814Z,95861.53
2018-04-01T00:36:21.438Z,95867.05
2018-04-01T00:36:53.066Z,95867.78
2018-04-01T00:37:24.690Z,95864.39
2018-04-01T00:37:56.314Z,95872.57
2018-04-01T00:38:27.938Z,95873.37
2018-04-01T00:38:59.566Z,95866.95
2018-04-01T00:39:31.199Z,95868.22
2018-04-01T00:40:02.830Z,95865.39
2018-04-01T00:40:34.454Z,95862.47
2018-04-01T00:41:06.082Z,95855.73
2018-04-01T00:41:37.713Z,95866.88
2018-04-01T00:42:09.386Z,95864.32
2018-04-01T00:42:41.078Z,95862.66
2018-04-01T00:43:12.707Z,95865.12
2018-04-01T00:43:44.339Z,95863.94
2018-04-01T00:44:15.970Z,95864.05
2018-04-01T00:44:47.603Z,95866.42
2018-04-01T00:45:19.225Z,95864.02
2018-04-01T00:45:50.849Z,95862.55
2018-04-01T00:46:22.474Z,95866.05
2018-04-01T00:46:54.098Z,95856.63
2018-04-01T00:47:25.759Z,95864.28
2018-04-01T00:47:57.455Z,95863.00
2018-04-01T00:48:29.082Z,95857.24
2018-04-01T00:49:00.706Z,95864.35
2018-04-01T00:49:32.339Z,95866.83
2018-04-01T00:50:04.059Z,95864.77
2018-04-01T00:50:35.681Z,95859.25
2018-04-01T00:51:07.310Z,95863.48
2018-04-01T00:51:38.939Z,95864.35
2018-04-01T00:52:10.563Z,95867.42
2018-04-01T00:52:42.191Z,95861.03
2018-04-01T00:53:13.890Z,95867.48
2018-04-01T00:53:45.514Z,95859.93
2018-04-01T00:54:17.138Z,95855.65
2018-04-01T00:54:48.774Z,95860.48
2018-04-01T00:55:20.403Z,95867.34
2018-04-01T00:55:52.035Z,95867.38
2018-04-01T00:56:23.661Z,95858.83
2018-04-01T00:56:55.285Z,95864.31
2018-04-01T00:57:26.913Z,95864.48
2018-04-01T00:57:58.543Z,95872.58
2018-04-01T00:58:30.236Z,95865.89
2018-04-01T00:59:01.868Z,95865.09
2018-04-01T00:59:33.502Z,95866.78
2018-04-01T01:00:05.127Z,95859.50
2018-04-01T01:00:36.763Z,95859.78
2018-04-01T01:01:08.394Z,95862.06
2018-04-01T01:01:40.023Z,95860.81
2018-04-01T01:02:11.646Z,95861.68
2018-04-01T01:02:43.275Z,95861.20
2018-04-01T01:03:14.907Z,95854.84
2018-04-01T01:03:46.599Z,95858.33
2018-04-01T01:04:18.221Z,95853.67
2018-04-01T01:04:49.858Z,95858.27
2018-04-01T01:05:21.490Z,95862.95
2018-04-01T01:05:53.114Z,95864.55
2018-04-01T01:06:24.741Z,95856.02
2018-04-01T01:06:56.366Z,95856.64
2018-04-01T01:07:27.994Z,95860.88
2018-04-01T01:07:59.626Z,95861.47
2018-04-01T01:08:31.249Z,95860.98
2018-04-01T01:09:02.950Z,95863.92
2018-04-01T01:09:34.578Z,95864.33
2018-04-01T01:10:06.204Z,95866.02
2018-04-01T01:10:37.830Z,95866.78
2018-04-01T01:11:09.454Z,95869.75
2018-04-01T01:11:41.078Z,95855.02
2018-04-01T01:12:12.706Z,95852.30
2018-04-01T01:12:44.334Z,95848.13
2018-04-01T01:13:15.962Z,95855.30
2018-04-01T01:13:47.585Z,95858.72
2018-04-01T01:14:19.279Z,95859.95
2018-04-01T01:14:50.906Z,95859.09
2018-04-01T01:15:22.534Z,95856.16
2018-04-01T01:15:54.163Z,95856.16
2018-04-01T01:16:25.804Z,95860.41
2018-04-01T01:16:57.434Z,95861.33
2018-04-01T01:17:29.062Z,95847.02
2018-04-01T01:18:00.692Z,95857.44
2018-04-01T01:18:32.352Z,95856.64
2018-04-01T01:19:03.983Z,95851.19
2018-04-01T01:19:35.695Z,95856.30
2018-04-01T01:20:07.323Z,95854.29
2018-04-01T01:20:38.945Z,95858.09
2018-04-01T01:21:10.570Z,95853.56
2018-04-01T01:21:42.212Z,95850.67
2018-04-01T01:22:13.838Z,95857.42
2018-04-01T01:22:45.466Z,95853.47
2018-04-01T01:23:17.094Z,95852.22
2018-04-01T01:23:48.722Z,95846.05
2018-04-01T01:24:20.351Z,95854.05
2018-04-01T01:24:52.050Z,95855.45
2018-04-01T01:25:23.679Z,95855.91
2018-04-01T01:25:55.312Z,95852.84
2018-04-01T01:26:26.942Z,95855.04
2018-04-01T01:26:58.566Z,95849.11
2018-04-01T01:27:30.199Z,95857.25
2018-04-01T01:28:01.830Z,95848.06
2018-04-01T01:28:33.454Z,95855.86
2018-04-01T01:29:05.078Z,95857.45
2018-04-01T01:29:36.715Z,95849.38
2018-04-01T01:30:08.426Z,95856.59
2018-04-01T01:30:40.050Z,95856.27
2018-04-01T01:31:11.674Z,95851.55
2018-04-01T01:31:43.301Z,95856.34
2018-04-01T01:32:14.970Z,95857.86
2018-04-01T01:32:46.587Z,95856.48
2018-04-01T01:33:18.213Z,95853.42
2018-04-01T01:33:49.839Z,95859.00
2018-04-01T01:34:21.462Z,95855.14
2018-04-01T01:34:53.081Z,95859.86
2018-04-01T01:35:24.782Z,95863.69
2018-04-01T01:35:56.410Z,95855.66
2018-04-01T01:36:28.212Z,95867.84
2018-04-01T01:36:59.806Z,95869.48
2018-04-01T01:37:31.429Z,95864.32
2018-04-01T01:38:03.058Z,95864.67
2018-04-01T01:38:34.687Z,95863.80
2018-04-01T01:39:06.314Z,95864.25
2018-04-01T01:39:37.937Z,95872.30
2018-04-01T01:40:09.567Z,95868.81
2018-04-01T01:40:41.267Z,95872.54
2018-04-01T01:41:12.890Z,95865.81
2018-04-01T01:41:44.590Z,95872.85
2018-04-01T01:42:16.214Z,95872.13
2018-04-01T01:42:47.849Z,95870.92
2018-04-01T01:43:19.483Z,95873.02
2018-04-01T01:43:51.182Z,95876.02
2018-04-01T01:44:22.805Z,95865.05
2018-04-01T01:44:54.430Z,95874.92
2018-04-01T01:45:26.054Z,95873.12
2018-04-01T01:45:57.683Z,95876.58
2018-04-01T01:46:29.314Z,95878.14
2018-04-01T01:47:00.978Z,95870.89
2018-04-01T01:47:32.605Z,95884.22
2018-04-01T01:48:04.230Z,95876.97
2018-04-01T01:48:35.854Z,95875.63
2018-04-01T01:49:07.513Z,95879.67
2018-04-01T01:49:39.142Z,95878.91
2018-04-01T01:50:10.767Z,95876.36
2018-04-01T01:50:42.399Z,95872.39
2018-04-01T01:51:14.090Z,95873.70
2018-04-01T01:51:45.723Z,95873.87
2018-04-01T01:52:17.362Z,95867.77
2018-04-01T01:52:48.991Z,95870.11
2018-04-01T01:53:20.621Z,95875.22
2018-04-01T01:53:52.251Z,95878.50
2018-04-01T01:54:23.882Z,95881.16
2018-04-01T01:54:55.505Z,95884.02
2018-04-01T01:55:27.135Z,95878.19
2018-04-01T01:55:58.774Z,95877.16
2018-04-01T01:56:30.482Z,95881.50
2018-04-01T01:57:02.126Z,95879.09
2018-04-01T01:57:33.754Z,95875.77
2018-04-01T01:58:05.406Z,95878.64
2018-04-01T01:58:37.030Z,95876.19
2018-04-01T01:59:08.674Z,95877.08
2018-04-01T01:59:40.299Z,95871.31
2018-04-01T02:00:11.949Z,95876.67
2018-04-01T02:00:43.574Z,95881.85
2018-04-01T02:01:15.201Z,95877.47
2018-04-01T02:01:46.902Z,95878.02
2018-04-01T02:02:18.526Z,95881.40
2018-04-01T02:02:50.151Z,95892.24
2018-04-01T02:03:21.783Z,95876.30
2018-04-01T02:03:53.405Z,95877.67
2018-04-01T02:04:25.060Z,95876.50
2018-04-01T02:04:56.691Z,95885.72
2018-04-01T02:05:28.329Z,95880.33
2018-04-01T02:05:59.950Z,95879.05
2018-04-01T02:06:31.578Z,95879.63
2018-04-01T02:07:03.279Z,95881.33
2018-04-01T02:07:34.910Z,95880.95
2018-04-01T02:08:06.535Z,95881.91
2018-04-01T02:08:38.169Z,95884.08
2018-04-01T02:09:09.795Z,95878.81
2018-04-01T02:09:41.419Z,95883.56
2018-04-01T02:10:13.050Z,95884.50
2018-04-01T02:10:44.681Z,95881.95
2018-04-01T02:11:16.323Z,95883.28
2018-04-01T02:11:47.948Z,95886.19
2018-04-01T02:12:19.638Z,95882.80
2018-04-01T02:12:51.275Z,95881.62
2018-04-01T02:13:22.910Z,95886.42
2018-04-01T02:13:54.539Z,95885.31
2018-04-01T02:14:26.162Z,95887.77
2018-04-01T02:14:57.786Z,95885.31
2018-04-01T02:15:29.410Z,95884.52
2018-04-01T02:16:01.039Z,95882.89
2018-04-01T02:16:32.662Z,95888.28
2018-04-01T02:17:04.290Z,95888.62
2018-04-01T02:17:36.034Z,95880.24
2018-04-01T02:18:07.658Z,95890.87
2018-04-01T02:18:39.287Z,95889.31
2018-04-01T02:19:10.918Z,95886.34
2018-04-01T02:19:42.542Z,95884.90
2018-04-01T02:20:14.166Z,95887.00
2018-04-01T02:20:45.793Z,95882.00
2018-04-01T02:21:17.418Z,95885.58
2018-04-01T02:21:49.065Z,95894.00
2018-04-01T02:22:20.695Z,95888.06
2018-04-01T02:22:52.326Z,95895.80
2018-04-01T02:23:23.954Z,95896.72
2018-04-01T02:23:55.598Z,95888.65
2018-04-01T02:24:27.251Z,95897.97
2018-04-01T02:24:58.883Z,95890.27
2018-04-01T02:25:30.510Z,95887.06
2018-04-01T02:26:02.134Z,95890.75
2018-04-01T02:26:33.764Z,95899.62
2018-04-01T02:27:05.386Z,95898.80
2018-04-01T02:27:37.010Z,95893.47
2018-04-01T02:28:08.702Z,95897.52
2018-04-01T02:28:40.335Z,95888.38
2018-04-01T02:29:11.966Z,95908.91
2018-04-01T02:29:43.598Z,95898.76
2018-04-01T02:30:15.227Z,95895.83
2018-04-01T02:30:46.864Z,95898.13
2018-04-01T02:31:18.573Z,95895.45
2018-04-01T02:31:50.146Z,95896.62
2018-04-01T02:32:21.784Z,95889.34
2018-04-01T02:32:53.411Z,95894.93
2018-04-01T02:33:25.107Z,95895.86
2018-04-01T02:33:56.730Z,95894.45
2018-04-01T02:34:28.365Z,95900.10
2018-04-01T02:35:00.008Z,95901.83
2018-04-01T02:35:31.651Z,95896.72
2018-04-01T02:36:03.282Z,95905.34
2018-04-01T02:36:34.910Z,95901.13
2018-04-01T02:37:06.538Z,95892.55
2018-04-01T02:37:38.172Z,95895.45
2018-04-01T02:38:09.811Z,95895.83
2018-04-01T02:38:41.512Z,95900.52
2018-04-01T02:39:13.144Z,95901.83
2018-04-01T02:39:44.802Z,95898.99
2018-04-01T02:40:16.426Z,95898.71
2018-04-01T02:40:48.055Z,95899.64
2018-04-01T02:41:19.683Z,95903.40
2018-04-01T02:41:51.319Z,95887.78
2018-04-01T02:42:22.949Z,95912.33
2018-04-01T02:42:54.584Z,95906.88
2018-04-01T02:43:26.213Z,95910.36
2018-04-01T02:43:57.909Z,95908.28
2018-04-01T02:44:29.538Z,95904.39
2018-04-01T02:45:01.163Z,95910.33
2018-04-01T02:45:32.790Z,95906.59
2018-04-01T02:46:04.423Z,95910.91
2018-04-01T02:46:36.072Z,95901.21
2018-04-01T02:47:07.709Z,95910.17
2018-04-01T02:47:39.346Z,95911.45
2018-04-01T02:48:10.969Z,95915.97
2018-04-01T02:48:42.594Z,95909.95
2018-04-01T02:49:14.294Z,95910.46
2018-04-01T02:49:45.954Z,95917.16
2018-04-01T02:50:17.578Z,95913.77
2018-04-01T02:50:49.206Z,95913.88
2018-04-01T02:51:20.835Z,95921.43
2018-04-01T02:51:52.471Z,95915.87
2018-04-01T02:52:24.097Z,95915.40
2018-04-01T02:52:55.729Z,95919.64
2018-04-01T02:53:27.360Z,95927.64
2018-04-01T02:53:58.986Z,95922.47
2018-04-01T02:54:30.679Z,95922.26
2018-04-01T02:55:02.302Z,95923.34
2018-04-01T02:55:33.934Z,95925.44
2018-04-01T02:56:05.558Z,95928.79
2018-04-01T02:56:37.191Z,95925.66
2018-04-01T02:57:08.823Z,95928.11
2018-04-01T02:57:40.446Z,95921.80
2018-04-01T02:58:12.074Z,95927.77
2018-04-01T02:58:43.698Z,95927.28
2018-04-01T02:59:15.323Z,95923.19
2018-04-01T02:59:47.018Z,95920.64
2018-04-01T03:00:18.702Z,95928.27
2018-04-01T03:00:50.326Z,95921.23
2018-04-01T03:01:21.956Z,95924.13
2018-04-01T03:01:53.584Z,95928.14
2018-04-01T03:02:25.210Z,95924.31
2018-04-01T03:02:56.844Z,95924.83
2018-04-01T03:03:28.466Z,95931.56
2018-04-01T03:04:00.104Z,95918.73
2018-04-01T03:04:31.814Z,95935.32
2018-04-01T03:05:03.478Z,95936.05
2018-04-01T03:05:35.110Z,95933.47
2018-04-01T03:06:06.738Z,95932.82
2018-04-01T03:06:38.358Z,95940.03
2018-04-01T03:07:09.991Z,95937.48
2018-04-01T03:07:41.622Z,95939.55
2018-04-01T03:08:13.256Z,95934.79
2018-04-01T03:08:44.889Z,95947.80
2018-04-01T03:09:16.518Z,95937.97
2018-04-01T03:09:48.143Z,95938.70
2018-04-01T03:10:19.830Z,95945.63
2018-04-01T03:10:51.460Z,95948.33
2018-04-01T03:11:23.086Z,95945.67
2018-04-01T03:11:54.714Z,95941.12
2018-04-01T03:12:26.358Z,95944.25
2018-04-01T03:12:57.982Z,95949.23
2018-04-01T03:13:29.606Z,95946.64
2018-04-01T03:14:01.240Z,95950.64
2018-04-01T03:14:32.865Z,95942.43
2018-04-01T03:15:04.498Z,95951.47
2018-04-01T03:15:36.197Z,95947.09
2018-04-01T03:16:07.827Z,95945.95
2018-04-01T03:16:39.454Z,95957.34
2018-04-01T03:17:11.079Z,95949.78
2018-04-01T03:17:42.706Z,95950.26
2018-04-01T03:18:14.325Z,95957.12
2018-04-01T03:18:45.945Z,95949.05
2018-04-01T03:19:17.566Z,95955.47
2018-04-01T03:19:49.192Z,95964.41
2018-04-01T03:20:20.820Z,95950.94
2018-04-01T03:20:52.514Z,95959.91
2018-04-01T03:21:24.142Z,95949.70
2018-04-01T03:21:55.779Z,95954.04
2018-04-01T03:22:27.403Z,95953.80
2018-04-01T03:22:59.027Z,95956.48
2018-04-01T03:23:30.654Z,95944.27
2018-04-01T03:24:02.283Z,95951.27
2018-04-01T03:24:33.906Z,95952.07
2018-04-01T03:25:05.531Z,95953.13
2018-04-01T03:25:37.158Z,95959.00
2018-04-01T03:26:08.858Z,95954.47
2018-04-01T03:26:40.491Z,95960.92
2018-04-01T03:27:12.114Z,95961.50
2018-04-01T03:27:43.742Z,95957.39
2018-04-01T03:28:15.367Z,95966.26
2018-04-01T03:28:46.999Z,95967.13
2018-04-01T03:29:18.621Z,95958.53
2018-04-01T03:29:50.255Z,95966.26
2018-04-01T03:30:21.879Z,95964.19
2018-04-01T03:30:53.507Z,95965.84
2018-04-01T03:31:25.139Z,95967.25
2018-04-01T03:31:56.771Z,95961.52
2018-04-01T03:32:28.394Z,95965.31
2018-04-01T03:33:00.019Z,95964.93
2018-04-01T03:33:31.651Z,95967.00
2018-04-01T03:34:03.282Z,95972.62
2018-04-01T03:34:34.912Z,95970.58
2018-04-01T03:35:06.534Z,95971.44
2018-04-01T03:35:38.162Z,95968.47
2018-04-01T03:36:09.790Z,95965.47
2018-04-01T03:36:41.479Z,95964.70
2018-04-01T03:37:13.109Z,95964.27
2018-04-01T03:37:44.751Z,95965.92
2018-04-01T03:38:16.377Z,95968.09
2018-04-01T03:38:48.006Z,95971.03
2018-04-01T03:39:19.635Z,95973.99
2018-04-01T03:39:51.268Z,95973.64
2018-04-01T03:40:22.893Z,95973.78
2018-04-01T03:40:54.522Z,95974.57
2018-04-01T03:41:26.148Z,95974.22
2018-04-01T03:41:57.842Z,95977.19
2018-04-01T03:42:29.477Z,95971.98
2018-04-01T03:43:01.111Z,95978.37
2018-04-01T03:43:32.733Z,95976.23
2018-04-01T03:44:04.366Z,95972.88
2018-04-01T03:44:35.990Z,95968.57
2018-04-01T03:45:07.619Z,95980.53
2018-04-01T03:45:39.251Z,95978.81
2018-04-01T03:46:10.890Z,95976.68
2018-04-01T03:46:42.514Z,95986.02
2018-04-01T03:47:14.207Z,95973.30
2018-04-01T03:47:45.834Z,95980.09
2018-04-01T03:48:17.474Z,95975.44
2018-04-01T03:48:49.102Z,95980.95
2018-04-01T03:49:20.762Z,95976.33
2018-04-01T03:49:52.391Z,95976.68
2018-04-01T03:50:24.019Z,95980.09
2018-04-01T03:50:55.674Z,95982.33
2018-04-01T03:51:27.303Z,95978.11
2018-04-01T03:51:58.930Z,95983.64
2018-04-01T03:52:30.618Z,95977.77
2018-04-01T03:53:02.248Z,95984.91
2018-04-01T03:53:33.870Z,95982.77
2018-04-01T03:54:05.497Z,95985.84
2018-04-01T03:54:37.122Z,95985.07
2018-04-01T03:55:08.759Z,95985.23
2018-04-01T03:55:40.387Z,95984.91
2018-04-01T03:56:12.017Z,95989.12
2018-04-01T03:56:43.646Z,95984.66
2018-04-01T03:57:15.270Z,95993.28
2018-04-01T03:57:46.970Z,95986.92
2018-04-01T03:58:18.603Z,95988.59
2018-04-01T03:58:50.233Z,95979.81
2018-04-01T03:59:21.863Z,95988.71
2018-04-01T03:59:53.494Z,95989.99
2018-04-01T04:00:25.144Z,95993.84
2018-04-01T04:00:56.781Z,95995.51
2018-04-01T04:01:28.406Z,95992.98
2018-04-01T04:02:00.035Z,95992.03
2018-04-01T04:02:31.674Z,95993.18
2018-04-01T04:03:03.381Z,95997.07
2018-04-01T04:03:35.030Z,95995.80
2018-04-01T04:04:06.657Z,96002.52
2018-04-01T04:04:38.310Z,95997.10
2018-04-01T04:05:09.954Z,96003.52
2018-04-01T04:05:41.599Z,96007.05
2018-04-01T04:06:13.242Z,96003.10
2018-04-01T04:06:44.891Z,96002.69
2018-04-01T04:07:16.525Z,96001.50
2018-04-01T04:07:48.175Z,96008.75
2018-04-01T04:08:19.806Z,96002.05
2018-04-01T04:08:51.447Z,95999.91
2018-04-01T04:09:23.071Z,96010.47
2018-04-01T04:09:54.702Z,96002.78
2018-04-01T04:10:26.326Z,96002.23
2018-04-01T04:10:57.949Z,96007.63
2018-04-01T04:11:29.574Z,96011.17
2018-04-01T04:12:01.206Z,96012.41
2018-04-01T04:12:32.833Z,96016.12
2018-04-01T04:13:04.454Z,96011.68
2018-04-01T04:13:36.318Z,96012.45
2018-04-01T04:14:07.943Z,96010.98
2018-04-01T04:14:39.574Z,96013.41
2018-04-01T04:15:11.202Z,96014.91
2018-04-01T04:15:42.833Z,96013.98
2018-04-01T04:16:14.462Z,96018.09
2018-04-01T04:16:46.090Z,96013.84
2018-04-01T04:17:17.720Z,96014.52
2018-04-01T04:17:49.346Z,96013.42
2018-04-01T04:18:20.970Z,96018.08
2018-04-01T04:18:52.662Z,96016.33
2018-04-01T04:19:24.286Z,96018.91
2018-04-01T04:19:55.919Z,96016.74
2018-04-01T04:20:27.550Z,96021.47
2018-04-01T04:20:59.178Z,96015.75
2018-04-01T04:21:30.807Z,96017.63
2018-04-01T04:22:02.439Z,96023.22
2018-04-01T04:22:34.066Z,96028.39
2018-04-01T04:23:06.739Z,96030.42
2018-04-01T04:23:38.363Z,96016.52
2018-04-01T04:24:10.062Z,96019.65
2018-04-01T04:24:41.686Z,96020.19
2018-04-01T04:25:13.310Z,96023.53
2018-04-01T04:25:44.938Z,96027.07
2018-04-01T04:26:16.570Z,96025.25
2018-04-01T04:26:48.197Z,96019.79
2018-04-01T04:27:19.849Z,96030.67
2018-04-01T04:27:51.474Z,96026.81
2018-04-01T04:28:23.097Z,96021.28
2018-04-01T04:28:54.722Z,96022.98
2018-04-01T04:29:26.413Z,96018.63
2018-04-01T04:29:58.054Z,96025.84
2018-04-01T04:30:29.682Z,96030.92
2018-04-01T04:31:01.307Z,96018.19
2018-04-01T04:31:32.934Z,96021.47
2018-04-01T04:32:04.558Z,96018.28
2018-04-01T04:32:36.178Z,96012.06
2018-04-01T04:33:07.802Z,96011.90
2018-04-01T04:33:39.430Z,96019.05
2018-04-01T04:34:11.125Z,96021.02
2018-04-01T04:34:42.822Z,96023.09
2018-04-01T04:35:14.445Z,96024.23
2018-04-01T04:35:46.070Z,96018.69
2018-04-01T04:36:17.698Z,96022.36
2018-04-01T04:36:49.322Z,96021.25
2018-04-01T04:37:20.951Z,96020.80
2018-04-01T04:37:52.575Z,96023.36
2018-04-01T04:38:24.202Z,96021.19
2018-04-01T04:38:55.826Z,96024.16
2018-04-01T04:39:27.450Z,96020.55
2018-04-01T04:39:59.139Z,96019.34
2018-04-01T04:40:30.762Z,96024.80
2018-04-01T04:41:02.394Z,96019.41
2018-04-01T04:41:34.026Z,96024.27
2018-04-01T04:42:05.686Z,96021.33
2018-04-01T04:42:37.309Z,96025.33
2018-04-01T04:43:08.935Z,96021.49
2018-04-01T04:43:40.591Z,96022.94
2018-04-01T04:44:12.218Z,96022.48
2018-04-01T04:44:43.850Z,96023.76
2018-04-01T04:45:15.474Z,96020.47
2018-04-01T04:45:47.102Z,96017.13
2018-04-01T04:46:18.726Z,96020.61
2018-04-01T04:46:50.351Z,96024.63
2018-04-01T04:47:21.974Z,96018.34
2018-04-01T04:47:53.597Z,96019.45
2018-04-01T04:48:25.222Z,96026.64
2018-04-01T04:48:56.849Z,96022.87
2018-04-01T04:49:28.474Z,96022.36
2018-04-01T04:50:00.166Z,96026.19
2018-04-01T04:50:31.832Z,96024.09
2018-04-01T04:51:03.457Z,96024.56
2018-04-01T04:51:35.082Z,96027.59
2018-04-01T04:52:06.710Z,96033.62
2018-04-01T04:52:38.336Z,96026.86
2018-04-01T04:53:09.958Z,96031.23
2018-04-01T04:53:41.587Z,96027.89
2018-04-01T04:54:13.214Z,96022.20
2018-04-01T04:54:44.842Z,96034.49
2018-04-01T04:55:16.549Z,96033.12
2018-04-01T04:55:48.193Z,96028.08
2018-04-01T04:56:19.822Z,96029.70
2018-04-01T04:56:51.445Z,96030.28
2018-04-01T04:57:23.074Z,96029.99
2018-04-01T04:57:54.704Z,96030.53
2018-04-01T04:58:26.354Z,96033.56
2018-04-01T04:58:57.978Z,96031.02
2018-04-01T04:59:29.615Z,96032.70
2018-04-01T05:00:01.248Z,96031.84
2018-04-01T05:00:32.938Z,96040.36
2018-04-01T05:01:04.570Z,96031.42
2018-04-01T05:01:36.199Z,96033.25
2018-04-01T05:02:07.836Z,96031.97
2018-04-01T05:02:39.494Z,96034.84
2018-04-01T05:03:11.118Z,96034.39
2018-04-01T05:03:42.746Z,96033.56
2018-04-01T05:04:14.370Z,96036.69
2018-04-01T05:04:45.998Z,96034.23
2018-04-01T05:05:17.622Z,96035.23
2018-04-01T05:05:49.324Z,96044.70
2018-04-01T05:06:20.950Z,96039.53
2018-04-01T05:06:52.578Z,96039.18
2018-04-01T05:07:24.206Z,96035.36
2018-04-01T05:07:55.834Z,96042.09
2018-04-01T05:08:27.464Z,96037.45
2018-04-01T05:08:59.094Z,96041.48
2018-04-01T05:09:30.727Z,96038.48
2018-04-01T05:10:02.359Z,96039.81
2018-04-01T05:10:34.092Z,96047.13
2018-04-01T05:11:05.791Z,96047.60
2018-04-01T05:11:37.418Z,96048.84
2018-04-01T05:12:09.050Z,96045.59
2018-04-01T05:12:40.678Z,96046.77
2018-04-01T05:13:12.302Z,96052.64
2018-04-01T05:13:43.925Z,96050.09
2018-04-01T05:14:15.554Z,96046.30
2018-04-01T05:14:47.178Z,96047.19
2018-04-01T05:15:18.811Z,96052.13
2018-04-01T05:15:50.437Z,96043.87
2018-04-01T05:16:22.126Z,96044.31
2018-04-01T05:16:53.754Z,96052.42
2018-04-01T05:17:25.383Z,96052.42
2018-04-01T05:17:57.015Z,96048.53
2018-04-01T05:18:28.637Z,96050.28
2018-04-01T05:19:00.262Z,96042.37
2018-04-01T05:19:31.904Z,96049.55
2018-04-01T05:20:03.537Z,96045.75
2018-04-01T05:20:35.169Z,96047.34
2018-04-01T05:21:06.790Z,96050.31
2018-04-01T05:21:38.485Z,96045.30
2018-04-01T05:22:10.126Z,96044.44
2018-04-01T05:22:41.762Z,96046.90
2018-04-01T05:23:13.403Z,96042.78
2018-04-01T05:23:45.038Z,96047.63
2018-04-01T05:24:16.671Z,96046.47
2018-04-01T05:24:48.293Z,96052.44
2018-04-01T05:25:19.914Z,96045.55
2018-04-01T05:25:51.538Z,96050.53
2018-04-01T05:26:23.158Z,96047.15
2018-04-01T05:26:54.782Z,96052.70
2018-04-01T05:27:26.406Z,96045.97
2018-04-01T05:27:58.038Z,96054.36
2018-04-01T05:28:29.662Z,96051.74
2018-04-01T05:29:01.287Z,96050.44
2018-04-01T05:29:32.918Z,96063.58
2018-04-01T05:30:04.548Z,96053.41
2018-04-01T05:30:36.178Z,96061.92
2018-04-01T05:31:07.803Z,96058.83
2018-04-01T05:31:39.436Z,96057.52
2018-04-01T05:32:11.135Z,96054.08
2018-04-01T05:32:42.763Z,96055.35
2018-04-01T05:33:14.399Z,96056.18
2018-04-01T05:33:46.026Z,96054.39
2018-04-01T05:34:17.654Z,96055.96
2018-04-01T05:34:49.278Z,96058.89
2018-04-01T05:35:20.907Z,96057.11
2018-04-01T05:35:52.546Z,96043.94
2018-04-01T05:36:24.174Z,96053.48
2018-04-01T05:36:55.803Z,96058.93
2018-04-01T05:37:27.499Z,96042.44
2018-04-01T05:37:59.126Z,96058.93
2018-04-01T05:38:30.752Z,96063.88
2018-04-01T05:39:02.383Z,96063.47
2018-04-01T05:39:34.006Z,96054.88
2018-04-01T05:40:05.634Z,96066.30
2018-04-01T05:40:37.263Z,96050.83
2018-04-01T05:41:08.886Z,96028.46
2018-04-01T05:41:40.509Z,96054.91
2018-04-01T05:42:12.133Z,96055.03
2018-04-01T05:42:43.840Z,96061.29
2018-04-01T05:43:15.486Z,96058.64
2018-04-01T05:43:47.114Z,96061.16
2018-04-01T05:44:18.742Z,96055.89
2018-04-01T05:44:50.367Z,96047.37
2018-04-01T05:45:21.999Z,96055.67
2018-04-01T05:45:53.626Z,96054.78
2018-04-01T05:46:25.250Z,96042.30
2018-04-01T05:46:56.873Z,96059.21
2018-04-01T05:47:28.503Z,96053.24
2018-04-01T05:48:00.206Z,96050.75
2018-04-01T05:48:31.851Z,96049.06
2018-04-01T05:49:03.474Z,96054.07
2018-04-01T05:49:35.108Z,96049.92
2018-04-01T05:50:06.738Z,96055.31
2018-04-01T05:50:38.362Z,96050.69
2018-04-01T05:51:09.986Z,96057.29
2018-04-01T05:51:41.615Z,96049.22
2018-04-01T05:52:13.246Z,96055.02
2018-04-01T05:52:44.874Z,96053.36
2018-04-01T05:53:16.570Z,96063.58
2018-04-01T05:53:48.193Z,96053.02
2018-04-01T05:54:19.822Z,96051.77
2018-04-01T05:54:51.455Z,96063.23
2018-04-01T05:55:23.081Z,96055.63
2018-04-01T05:55:54.719Z,96057.84
2018-04-01T05:56:26.350Z,96058.05
2018-04-01T05:56:57.978Z,96055.44
2018-04-01T05:57:29.602Z,96054.29
2018-04-01T05:58:01.235Z,96057.77
2018-04-01T05:58:32.938Z,96055.19
2018-04-01T05:59:04.562Z,96061.61
2018-04-01T05:59:36.186Z,96058.70
2018-04-01T06:00:07.816Z,96060.59
2018-04-01T06:00:39.443Z,96055.03
2018-04-01T06:01:11.070Z,96059.38
2018-04-01T06:01:42.693Z,96068.41
2018-04-01T06:02:14.323Z,96056.47
2018-04-01T06:02:45.993Z,96055.80
2018-04-01T06:03:17.618Z,96057.94
2018-04-01T06:03:49.316Z,96063.46
2018-04-01T06:04:20.943Z,96062.41
2018-04-01T06:04:52.569Z,96056.95
2018-04-01T06:05:24.199Z,96060.05
2018-04-01T06:05:55.826Z,96056.70
2018-04-01T06:06:27.453Z,96063.18
2018-04-01T06:06:59.074Z,96059.80
2018-04-01T06:07:30.698Z,96064.65
2018-04-01T06:08:02.330Z,96059.25
2018-04-01T06:08:33.958Z,96065.73
2018-04-01T06:09:05.614Z,96058.55
2018-04-01T06:09:37.237Z,96056.22
2018-04-01T06:10:08.866Z,96056.61
2018-04-01T06:10:40.494Z,96065.03
2018-04-01T06:11:12.117Z,96068.57
2018-04-01T06:11:43.891Z,96066.88